PWSweather.com
Personal Weather Stations
Station Observations
RHPWSHOR1
Horwich, BoltonGB

HorwichBoltonGB

Lat: 53.5852661, Lon: -2.532877

Elevation: 389

Station Type: Oregon Scientific WMR100

Latest ConditionsUpdated 4:02:41 AM GMT Wednesday, Apr 16, 2014
Currently Today's Max Today's Min Today's Average
Temperature 41.0°F5.0°C 45.0°F7.2°C 41.0°F5.0°C 42.6°F5.9°C
Dew Point 23.3°F-4.8°C 23.5°F-4.7°C 21.5°F-5.8°C 22.2°F-5.4°C
Winds 2.2 mph SSE3.5 kmh SSE 3.6 mph SSW5.8 kmh SSW - 1.5 mph 2.4 kmh
Wind Gusts 2.2 mph3.5 kmh 4.3 mph6.9 kmh - -
Humidity 49% 49% 41% 44%
Pressure 29.74 in1007.1 mb 29.74 in1007.1 mb 29.74 in1007.1 mb -
Hour Temp Dew Point Humidity Winds Wind Gusts Pressure Precip Precip Rate Daily Precip Total
04:02 AM 41.0°F5.0°C 23.3°F-4.8°C 49% 2.2 mph SSE3.5 kmh SSE 2.2 mph3.5 kmh 29.74 in1007.1 mb 0.00 in0.0 mm 0.00 in/hr0.0 mm/hr 0.00 in0.0 mm
03:55 AM 41.2°F5.1°C 23.5°F-4.7°C 49% 3.6 mph SSW5.8 kmh SSW 3.6 mph5.8 kmh 29.74 in1007.1 mb 0.00 in0.0 mm 0.00 in/hr0.0 mm/hr 0.00 in0.0 mm
03:47 AM 41.2°F5.1°C 23.0°F-5.0°C 48% 1.3 mph SSW2.1 kmh SSW 2.5 mph4.0 kmh 29.74 in1007.1 mb 0.00 in0.0 mm 0.00 in/hr0.0 mm/hr 0.00 in0.0 mm
03:39 AM 41.2°F5.1°C 22.5°F-5.3°C 47% 2.0 mph ENE3.2 kmh ENE 2.0 mph3.2 kmh 29.74 in1007.1 mb 0.00 in0.0 mm 0.00 in/hr0.0 mm/hr 0.00 in0.0 mm
03:31 AM 41.2°F5.1°C 22.0°F-5.6°C 46% 1.3 mph ENE2.1 kmh ENE 1.3 mph2.1 kmh 29.74 in1007.1 mb 0.00 in0.0 mm 0.00 in/hr0.0 mm/hr 0.00 in0.0 mm
03:25 AM 41.4°F5.2°C 22.2°F-5.4°C 46% 1.1 mph S1.8 kmh S 1.1 mph1.8 kmh 29.74 in1007.1 mb 0.00 in0.0 mm 0.00 in/hr0.0 mm/hr 0.00 in0.0 mm
03:18 AM 41.5°F5.3°C 21.8°F-5.7°C 45% 0.9 mph WNW1.4 kmh WNW 1.3 mph2.1 kmh 29.74 in1007.1 mb 0.00 in0.0 mm 0.00 in/hr0.0 mm/hr 0.00 in0.0 mm
03:10 AM 41.7°F5.4°C 22.0°F-5.6°C 45% 1.1 mph S1.8 kmh S 1.3 mph2.1 kmh 29.74 in1007.1 mb 0.00 in0.0 mm 0.00 in/hr0.0 mm/hr 0.00 in0.0 mm
03:03 AM 41.7°F5.4°C 22.0°F-5.6°C 45% 1.6 mph ESE2.6 kmh ESE 2.2 mph3.5 kmh 29.74 in1007.1 mb 0.00 in0.0 mm 0.00 in/hr0.0 mm/hr 0.00 in0.0 mm
02:55 AM 41.9°F5.5°C 22.1°F-5.5°C 45% 1.3 mph SSW2.1 kmh SSW 1.3 mph2.1 kmh 29.74 in1007.1 mb 0.00 in0.0 mm 0.00 in/hr0.0 mm/hr 0.00 in0.0 mm
02:48 AM 42.3°F5.7°C 22.5°F-5.3°C 45% 1.1 mph SSE1.8 kmh SSE 1.3 mph2.1 kmh 29.74 in1007.1 mb 0.00 in0.0 mm 0.00 in/hr0.0 mm/hr 0.00 in0.0 mm
02:40 AM 42.1°F5.6°C 21.8°F-5.7°C 44% 2.0 mph SSE3.2 kmh SSE 4.3 mph6.9 kmh 29.74 in1007.1 mb 0.00 in0.0 mm 0.00 in/hr0.0 mm/hr 0.00 in0.0 mm
02:33 AM 42.3°F5.7°C 21.9°F-5.6°C 44% 0.9 mph WSW1.4 kmh WSW 1.6 mph2.6 kmh 29.74 in1007.1 mb 0.00 in0.0 mm 0.00 in/hr0.0 mm/hr 0.00 in0.0 mm
02:25 AM 42.3°F5.7°C 21.9°F-5.6°C 44% 2.2 mph SSW3.5 kmh SSW 2.9 mph4.7 kmh 29.74 in1007.1 mb 0.00 in0.0 mm 0.00 in/hr0.0 mm/hr 0.00 in0.0 mm
02:17 AM 42.3°F5.7°C 21.9°F-5.6°C 44% 1.3 mph SW2.1 kmh SW 1.3 mph2.1 kmh 29.74 in1007.1 mb 0.00 in0.0 mm 0.00 in/hr0.0 mm/hr 0.00 in0.0 mm
02:09 AM 42.4°F5.8°C 22.1°F-5.5°C 44% 1.1 mph SSW1.8 kmh SSW 1.3 mph2.1 kmh 29.74 in1007.1 mb 0.00 in0.0 mm 0.00 in/hr0.0 mm/hr 0.00 in0.0 mm
02:01 AM 42.4°F5.8°C 21.5°F-5.8°C 43% 2.0 mph SSE3.2 kmh SSE 2.0 mph3.2 kmh 29.74 in1007.1 mb 0.00 in0.0 mm 0.00 in/hr0.0 mm/hr 0.00 in0.0 mm
01:52 AM 42.4°F5.8°C 21.5°F-5.8°C 43% 1.3 mph SSE2.1 kmh SSE 1.3 mph2.1 kmh 29.74 in1007.1 mb 0.00 in0.0 mm 0.00 in/hr0.0 mm/hr 0.00 in0.0 mm
01:43 AM 42.8°F6.0°C 21.9°F-5.6°C 43% 1.3 mph SSW2.1 kmh SSW 1.3 mph2.1 kmh 29.74 in1007.1 mb 0.00 in0.0 mm 0.00 in/hr0.0 mm/hr 0.00 in0.0 mm
01:35 AM 43.2°F6.2°C 22.2°F-5.4°C 43% 2.0 mph SSE3.2 kmh SSE 2.0 mph3.2 kmh 29.74 in1007.1 mb 0.00 in0.0 mm 0.00 in/hr0.0 mm/hr 0.00 in0.0 mm
01:27 AM 43.2°F6.2°C 22.2°F-5.4°C 43% 2.0 mph E3.2 kmh E 2.5 mph4.0 kmh 29.74 in1007.1 mb 0.00 in0.0 mm 0.00 in/hr0.0 mm/hr 0.00 in0.0 mm
01:19 AM 43.2°F6.2°C 22.2°F-5.4°C 43% 2.5 mph SSW4.0 kmh SSW 2.5 mph4.0 kmh 29.74 in1007.1 mb 0.00 in0.0 mm 0.00 in/hr0.0 mm/hr 0.00 in0.0 mm
01:11 AM 43.2°F6.2°C 21.6°F-5.8°C 42% 3.1 mph WSW5.0 kmh WSW 3.1 mph5.0 kmh 29.74 in1007.1 mb 0.00 in0.0 mm 0.00 in/hr0.0 mm/hr 0.00 in0.0 mm
01:03 AM 43.3°F6.3°C 21.8°F-5.7°C 42% 1.1 mph ENE1.8 kmh ENE 2.2 mph3.5 kmh 29.74 in1007.1 mb 0.00 in0.0 mm 0.00 in/hr0.0 mm/hr 0.00 in0.0 mm
12:55 AM 43.7°F6.5°C 22.1°F-5.5°C 42% 2.0 mph ESE3.2 kmh ESE 2.0 mph3.2 kmh 29.74 in1007.1 mb 0.00 in0.0 mm 0.00 in/hr0.0 mm/hr 0.00 in0.0 mm
12:48 AM 43.7°F6.5°C 22.1°F-5.5°C 42% 0.9 mph NNE1.4 kmh NNE 0.9 mph1.4 kmh 29.74 in1007.1 mb 0.00 in0.0 mm 0.00 in/hr0.0 mm/hr 0.00 in0.0 mm
12:40 AM 43.9°F6.6°C 22.3°F-5.4°C 42% 1.1 mph NNE1.8 kmh NNE 2.0 mph3.2 kmh 29.74 in1007.1 mb 0.00 in0.0 mm 0.00 in/hr0.0 mm/hr 0.00 in0.0 mm
12:33 AM 44.1°F6.7°C 21.9°F-5.6°C 41% Calm Calm -- 29.74 in1007.1 mb 0.00 in0.0 mm 0.00 in/hr0.0 mm/hr 0.00 in0.0 mm
12:25 AM 44.4°F6.9°C 22.2°F-5.4°C 41% 0.9 mph SE1.4 kmh SE 1.6 mph2.6 kmh 29.74 in1007.1 mb 0.00 in0.0 mm 0.00 in/hr0.0 mm/hr 0.00 in0.0 mm
12:17 AM 44.8°F7.1°C 22.5°F-5.3°C 41% 1.3 mph SSW2.1 kmh SSW 1.3 mph2.1 kmh 29.74 in1007.1 mb 0.00 in0.0 mm 0.00 in/hr0.0 mm/hr 0.00 in0.0 mm
12:09 AM 45.0°F7.2°C 22.7°F-5.2°C 41% Calm Calm -- 29.74 in1007.1 mb 0.00 in0.0 mm 0.00 in/hr0.0 mm/hr 0.00 in0.0 mm